Exe Otter — J8B4923 — position and weather

sailwx.info

Track history (hours):
 
Tides and Currents Weather Stations Pressure Air Temp Water Temp Dewpoint Dewpoint Depression Visibility Wind Speed Wind Dir Waves Ship Positions

Exe Otter

Last reported at 2018-Jun-20 13:34 UTC. Time now 2018-Jun-21 02:58 UTC.
Position N 32°56' E 034°43'.

Length 82 m; draft 5.4 m.

Type: Cargo ship. MMSI: 376070000.

Date/timePositionNaut miles runAvg speedWind from/ knotsBaromVisibWave heightAir tempDewpointWater temp
2018-Jun-20 13:34N 32°56' E 034°43'1 9.4
2018-Jun-20 13:30N 32°56' E 034°44'4 7.6
2018-Jun-20 12:57N 32°54' E 034°49'4 7.9
2018-Jun-20 12:30N 32°53' E 034°53'6 7.9
2018-Jun-20 11:46N 32°52' E 034°59'1 0.0
2018-Jun-19 11:55N 32°51' E 034°59'0 0.0
2018-Jun-19 11:26N 32°51' E 034°59'0 0.0
2018-Jun-19 10:55N 32°51' E 034°59'0 0.0
2018-Jun-19 10:25N 32°51' E 034°59'0 0.0
2018-Jun-19 09:54N 32°51' E 034°60'0 0.0
2018-Jun-19 08:52N 32°51' E 034°60'0 0.0
2018-Jun-19 08:24N 32°51' E 034°59'0 0.0
2018-Jun-19 08:00N 32°51' E 034°60'0 0.0
2018-Jun-19 07:29N 32°51' E 034°59'0 0.0
2018-Jun-19 06:58N 32°51' E 034°59'0 0.0
2018-Jun-19 06:30N 32°51' E 034°59'0 0.0
2018-Jun-19 05:56N 32°51' E 034°59'0 0.0
2018-Jun-19 05:13N 32°51' E 034°60'0 0.1
2018-Jun-19 05:00N 32°51' E 034°59'0 0.0
2018-Jun-19 04:30N 32°51' E 034°59'0 0.0
2018-Jun-19 03:56N 32°51' E 034°59'0 0.0
2018-Jun-19 03:24N 32°51' E 034°59'0 0.0
2018-Jun-19 02:59N 32°51' E 034°59'0 0.0
2018-Jun-19 02:30N 32°51' E 034°59'0 0.0
2018-Jun-19 02:01N 32°51' E 034°59'0 0.0
2018-Jun-19 01:22N 32°51' E 034°59'0 0.0
2018-Jun-19 01:00N 32°51' E 034°59'0 0.0
2018-Jun-19 00:29N 32°51' E 034°59'0 0.0
2018-Jun-19 00:00N 32°51' E 034°59'0 0.0
2018-Jun-18 23:26N 32°51' E 034°59'0 0.0
2018-Jun-18 23:00N 32°51' E 034°59'0 0.0
2018-Jun-18 22:29N 32°51' E 034°59'0 0.0
2018-Jun-18 21:56N 32°51' E 034°59'0 0.0
2018-Jun-18 21:29N 32°51' E 034°59'0 0.0
2018-Jun-18 20:59N 32°51' E 034°59'0 0.0
2018-Jun-18 20:27N 32°51' E 034°59'0 0.0
2018-Jun-18 19:46N 32°51' E 034°59'0 0.0
2018-Jun-18 19:30N 32°51' E 034°59'0 0.0
2018-Jun-18 18:58N 32°51' E 034°59'0 0.0
2018-Jun-18 18:30N 32°51' E 034°59'0 0.0
2018-Jun-18 17:59N 32°51' E 034°59'0 0.0
2018-Jun-18 17:30N 32°51' E 034°59'0 0.0
2018-Jun-18 16:59N 32°51' E 034°59'0 0.0
2018-Jun-18 16:13N 32°51' E 034°59'0 0.0
2018-Jun-18 16:01N 32°51' E 034°59'0 0.0
2018-Jun-18 15:29N 32°51' E 034°59'0 0.0
2018-Jun-18 14:42N 32°51' E 034°59'0 0.0
2018-Jun-18 14:15N 32°51' E 034°59'0 0.0
2018-Jun-18 13:52N 32°51' E 034°59'0 0.0
2018-Jun-18 13:27N 32°51' E 034°59'0 0.0
2018-Jun-18 12:57N 32°51' E 034°59'0 0.0
2018-Jun-18 12:27N 32°51' E 034°59'0 0.0
2018-Jun-18 11:56N 32°51' E 034°59'0 0.0
2018-Jun-18 11:13N 32°51' E 034°59'0 0.0
2018-Jun-18 10:59N 32°51' E 034°60'0 0.0
2018-Jun-18 10:20N 32°51' E 034°60'0 0.0
2018-Jun-18 09:59N 32°51' E 034°60'0 0.0
2018-Jun-18 09:30N 32°51' E 034°60'0 0.0
2018-Jun-18 08:58N 32°51' E 034°60'0 0.0
2018-Jun-18 08:27N 32°51' E 034°60'0 0.0
2018-Jun-18 07:39N 32°51' E 034°59'0 0.1
2018-Jun-18 07:30N 32°51' E 034°59'0 0.0
2018-Jun-18 07:00N 32°51' E 034°59'0 0.0
2018-Jun-18 06:16N 32°51' E 034°59'0 0.0
2018-Jun-18 05:59N 32°51' E 034°59'0 0.0
2018-Jun-18 05:18N 32°51' E 034°59'0 0.0
2018-Jun-18 05:00N 32°51' E 034°59'0 0.0
2018-Jun-18 04:30N 32°51' E 034°59'0 0.0
2018-Jun-18 03:59N 32°51' E 034°59'0 0.0
2018-Jun-18 03:30N 32°51' E 034°59'0 0.0
2018-Jun-18 02:58N 32°51' E 034°59'0 0.0
2018-Jun-18 02:26N 32°51' E 034°59'0 0.0
2018-Jun-18 01:57N 32°51' E 034°59'0 0.0
2018-Jun-18 01:30N 32°51' E 034°59'0 0.0
2018-Jun-18 01:01N 32°51' E 034°59'0 0.0
2018-Jun-18 00:26N 32°51' E 034°59'0 0.0
2018-Jun-17 23:55N 32°51' E 034°59'0 0.0
2018-Jun-17 23:30N 32°51' E 034°59'0 0.0
2018-Jun-17 22:41N 32°51' E 034°59'0 0.0
2018-Jun-17 22:21N 32°51' E 034°59'0 0.0
2018-Jun-17 22:00N 32°51' E 034°59'0 0.0
2018-Jun-17 21:27N 32°51' E 034°59'0 0.0
2018-Jun-17 20:57N 32°51' E 034°59'0 0.0
2018-Jun-17 20:30N 32°51' E 034°60'0 0.0
2018-Jun-17 20:00N 32°51' E 034°59'0 0.0
2018-Jun-17 19:22N 32°51' E 034°59'0 0.0
2018-Jun-17 18:48N 32°51' E 034°59'0 0.0
2018-Jun-17 18:27N 32°51' E 034°59'0 0.0
2018-Jun-17 17:57N 32°51' E 034°60'0 0.0
2018-Jun-17 17:31N 32°51' E 034°59'0 0.0
2018-Jun-17 17:00N 32°51' E 034°59'0 0.0
2018-Jun-17 16:20N 32°51' E 034°59'0 0.0
2018-Jun-17 15:24N 32°51' E 034°59'0 0.0
2018-Jun-17 14:59N 32°51' E 034°59'0 0.0
2018-Jun-17 14:30N 32°51' E 034°59'0 0.0
2018-Jun-17 13:57N 32°51' E 034°59'0 0.0
2018-Jun-17 13:29N 32°51' E 034°59'0 0.0
2018-Jun-17 12:59N 32°51' E 034°59'0 0.0
2018-Jun-17 12:29N 32°51' E 034°59'0 0.0
2018-Jun-17 11:59N 32°51' E 034°59'0 0.0
2018-Jun-17 11:29N 32°51' E 034°59'0 0.0
2018-Jun-17 10:59N 32°51' E 034°59'0 0.0
2018-Jun-17 10:30N 32°51' E 034°59'0 0.0
2018-Jun-17 09:58N 32°51' E 034°59'0 0.0
2018-Jun-17 09:17N 32°51' E 034°59'0 0.0
2018-Jun-17 08:58N 32°51' E 034°59'0 0.0
2018-Jun-17 08:29N 32°51' E 034°59'0 0.0
2018-Jun-17 07:56N 32°51' E 034°59'0 0.0
2018-Jun-17 07:24N 32°51' E 034°59'0 0.0
2018-Jun-17 06:59N 32°51' E 034°59'0 0.0
2018-Jun-17 06:17N 32°51' E 034°59'0 0.0
2018-Jun-17 05:59N 32°51' E 034°59'0 0.0
2018-Jun-17 05:29N 32°51' E 034°59'0 0.0
2018-Jun-17 04:57N 32°51' E 034°59'0 0.0
2018-Jun-17 04:28N 32°51' E 034°59'0 0.0
2018-Jun-17 03:34N 32°51' E 034°59'0 0.1
2018-Jun-17 03:30N 32°51' E 034°59'0 0.0
2018-Jun-17 03:00N 32°51' E 034°60'0 0.0
2018-Jun-17 02:29N 32°51' E 034°60'0 0.0
2018-Jun-17 01:58N 32°51' E 034°60'0 0.0
2018-Jun-17 01:29N 32°51' E 034°60'0 0.0
2018-Jun-17 00:55N 32°51' E 034°60'0 0.0
2018-Jun-17 00:28N 32°51' E 034°60'0 0.0
2018-Jun-17 00:00N 32°51' E 034°60'0 0.0
2018-Jun-16 23:29N 32°51' E 034°60'0 0.0
2018-Jun-16 22:58N 32°51' E 034°60'0 0.0
2018-Jun-16 22:30N 32°51' E 034°60'0 0.0
2018-Jun-16 22:01N 32°51' E 034°59'0 0.0
2018-Jun-16 21:31N 32°51' E 034°59'0 0.1
2018-Jun-16 20:59N 32°51' E 034°59'0 0.1
2018-Jun-16 20:30N 32°51' E 034°59'0 0.1
2018-Jun-16 19:59N 32°51' E 034°59'0 0.0
2018-Jun-16 19:28N 32°51' E 034°59'0 0.0
2018-Jun-16 19:00N 32°51' E 034°59'0 0.1
2018-Jun-16 18:17N 32°51' E 034°59'0 0.0
2018-Jun-16 17:59N 32°51' E 034°59'0 0.0
2018-Jun-16 17:26N 32°51' E 034°59'0 0.1
2018-Jun-16 17:00N 32°51' E 034°59'0 0.0
2018-Jun-16 16:27N 32°51' E 034°59'0 0.1
2018-Jun-16 15:58N 32°51' E 034°59'0 0.0
2018-Jun-16 15:26N 32°51' E 034°59'0 0.0
2018-Jun-16 14:59N 32°51' E 034°59'0 0.0
2018-Jun-16 14:22N 32°51' E 034°59'0 0.0
2018-Jun-16 13:58N 32°51' E 034°59'0 0.0
2018-Jun-16 13:27N 32°51' E 034°59'1 0.9
2018-Jun-16 12:44N 32°51' E 034°59'1 6.8
2018-Jun-16 12:31N 32°52' E 034°57'4 7.5
2018-Jun-16 12:00N 32°53' E 034°53'4 7.5
2018-Jun-16 11:29N 32°54' E 034°49'4 7.5
2018-Jun-16 11:01N 32°56' E 034°45'4 7.6
2018-Jun-16 10:31N 32°57' E 034°40'4 7.6
2018-Jun-16 10:00N 32°58' E 034°36'37 7.3
2018-Jun-16 04:55N 33°32' E 034°17'14 7.3
2018-Jun-16 02:57N 33°45' E 034°11'3 7.2
2018-Jun-16 02:30N 33°48' E 034°10'3 7.2
2018-Jun-16 02:00N 33°52' E 034°08'4 7.0
2018-Jun-16 01:31N 33°55' E 034°07'4 7.4
2018-Jun-16 01:00N 33°58' E 034°05'5 7.1
2018-Jun-16 00:15N 34°03' E 034°03'2 7.1
2018-Jun-16 00:00N 34°05' E 034°02'4 7.1
2018-Jun-15 23:31N 34°08' E 034°01'4 7.3
2018-Jun-15 22:55N 34°12' E 033°59'4 7.3
2018-Jun-15 22:24N 34°16' E 033°57'9 7.5
2018-Jun-15 21:14N 34°24' E 033°54'2 7.6
2018-Jun-15 21:01N 34°26' E 033°53'4 7.5
2018-Jun-15 20:31N 34°29' E 033°52'4 7.6
2018-Jun-15 19:56N 34°34' E 033°50'3 7.7
2018-Jun-15 19:29N 34°37' E 033°49'4 7.8
2018-Jun-15 19:00N 34°40' E 033°47'4 7.9
2018-Jun-15 18:30N 34°44' E 033°45'4 8.0
2018-Jun-15 18:00N 34°48' E 033°44'9 6.4
2018-Jun-15 16:36N 34°56' E 033°39'0 0.5
2018-Jun-15 16:22N 34°56' E 033°39'0 0.0
2018-Jun-15 15:58N 34°56' E 033°39'0 0.0
2018-Jun-15 15:28N 34°56' E 033°39'0 0.0
2018-Jun-15 14:58N 34°56' E 033°39'0 0.0
2018-Jun-15 13:59N 34°56' E 033°39'0 0.0
2018-Jun-15 13:28N 34°56' E 033°39'0 0.0
2018-Jun-15 12:55N 34°56' E 033°39'0 0.0
2018-Jun-15 11:55N 34°56' E 033°39'0 0.0
2018-Jun-15 10:37N 34°56' E 033°39'0 0.1
2018-Jun-15 10:28N 34°56' E 033°39'0 0.0
2018-Jun-15 09:58N 34°56' E 033°39'96 6.8
2018-Jun-14 19:52N 33°26' E 034°19'3 8.9
2018-Jun-14 19:30N 33°22' E 034°20'11 8.9
2018-Jun-14 18:15N 33°12' E 034°25'2 8.8
2018-Jun-14 17:59N 33°10' E 034°26'5 8.7
2018-Jun-14 17:26N 33°05' E 034°28'5 8.5
2018-Jun-14 16:50N 33°01' E 034°31'2 7.5
2018-Jun-14 16:30N 32°59' E 034°33'4 8.3
2018-Jun-14 15:58N 32°57' E 034°38'5 8.2
2018-Jun-14 15:24N 32°56' E 034°43'3 8.1
2018-Jun-14 15:00N 32°55' E 034°47'4 8.1
2018-Jun-14 14:29N 32°54' E 034°51'4 8.0
2018-Jun-14 13:59N 32°53' E 034°56'3 7.2
2018-Jun-14 13:30N 32°51' E 034°60'1 0.0
2018-Jun-12 22:31N 32°51' E 034°60'0 0.0
2018-Jun-12 11:32N 32°51' E 034°60'0 0.0
2018-Jun-12 06:37N 32°51' E 034°60'0 0.0
2018-Jun-12 02:09N 32°51' E 034°60'0 0.0
2018-Jun-12 02:01N 32°51' E 034°60'0 0.0
2018-Jun-12 01:19N 32°51' E 034°60'0 0.0
2018-Jun-11 21:15N 32°51' E 034°60'0 0.0
2018-Jun-11 20:34N 32°51' E 034°60'0 0.0
2018-Jun-11 19:21N 32°51' E 034°60'0 0.1
2018-Jun-11 19:00N 32°51' E 034°60'0 0.0
2018-Jun-11 12:07N 32°51' E 034°60'0 0.1
2018-Jun-11 12:00N 32°51' E 034°60'0 0.0
2018-Jun-11 11:27N 32°51' E 034°60'0 0.0
2018-Jun-11 10:17N 32°51' E 034°60'0 0.0
2018-Jun-11 09:51N 32°51' E 034°60'0 0.0
2018-Jun-11 09:29N 32°51' E 034°60'0 0.0
2018-Jun-11 08:46N 32°51' E 034°60'0 0.0
2018-Jun-11 08:23N 32°51' E 034°60'0 0.0
2018-Jun-11 07:50N 32°51' E 034°60'0 0.0
2018-Jun-11 06:43N 32°51' E 034°60'0 0.0
2018-Jun-11 06:28N 32°51' E 034°60'0 0.0
2018-Jun-11 05:57N 32°51' E 034°60'0 0.0
2018-Jun-11 05:26N 32°51' E 034°60'0 0.0
2018-Jun-11 04:45N 32°51' E 034°60'0 0.0
2018-Jun-11 04:29N 32°51' E 034°60'0 0.0
2018-Jun-11 03:59N 32°51' E 034°60'0 0.0
2018-Jun-11 03:30N 32°51' E 034°60'0 0.0
2018-Jun-11 02:59N 32°51' E 034°60'0 0.0
2018-Jun-11 02:28N 32°51' E 034°60'0 0.0
2018-Jun-11 01:56N 32°51' E 034°60'0 0.0
2018-Jun-11 01:30N 32°51' E 034°60'0 0.0
2018-Jun-11 00:51N 32°51' E 034°60'0 0.0
2018-Jun-11 00:25N 32°51' E 034°60'0 0.0
2018-Jun-11 00:00N 32°51' E 034°60'0 0.0
2018-Jun-10 23:30N 32°51' E 034°60'0 0.0
2018-Jun-10 22:54N 32°51' E 034°60'0 0.0
2018-Jun-10 22:30N 32°51' E 034°60'0 0.0
2018-Jun-10 21:59N 32°51' E 034°60'0 0.0
2018-Jun-10 21:16N 32°51' E 034°60'0 0.1
2018-Jun-10 20:59N 32°51' E 034°60'0 0.0
2018-Jun-10 20:29N 32°51' E 034°60'0 0.0
2018-Jun-10 19:57N 32°51' E 034°60'0 0.0
2018-Jun-10 19:30N 32°51' E 034°60'0 0.0
2018-Jun-10 18:59N 32°51' E 034°60'0 0.0
2018-Jun-10 18:27N 32°51' E 034°60'0 0.0
2018-Jun-10 17:53N 32°51' E 034°60'0 0.0
2018-Jun-10 17:27N 32°51' E 034°60'0 0.0
2018-Jun-10 17:00N 32°51' E 034°60'0 0.0
2018-Jun-10 16:30N 32°51' E 034°60'0 0.0
2018-Jun-10 15:54N 32°51' E 034°60'0 0.0
2018-Jun-10 15:21N 32°51' E 034°60'0 0.0
2018-Jun-10 14:52N 32°51' E 034°60'  
Track history (hours):
 
Tides and Currents Weather Stations Pressure Air Temp Water Temp Dewpoint Dewpoint Depression Visibility Wind Speed Wind Dir Waves Ship Positions

Exe Otter

Last reported at 2018-Jun-20 13:34 UTC. Time now 2018-Jun-21 02:58 UTC.
Position N 32°56' E 034°43'.

Length 82 m; draft 5.4 m.

Type: Cargo ship. MMSI: 376070000.

Date/timePositionNaut miles runAvg speedWind from/ knotsBaromVisibWave heightAir tempDewpointWater temp
2018-Jun-20 13:34N 32°56' E 034°43'1 9.4
2018-Jun-20 13:30N 32°56' E 034°44'4 7.6
2018-Jun-20 12:57N 32°54' E 034°49'4 7.9
2018-Jun-20 12:30N 32°53' E 034°53'6 7.9
2018-Jun-20 11:46N 32°52' E 034°59'1 0.0
2018-Jun-19 11:55N 32°51' E 034°59'0 0.0
2018-Jun-19 11:26N 32°51' E 034°59'0 0.0
2018-Jun-19 10:55N 32°51' E 034°59'0 0.0
2018-Jun-19 10:25N 32°51' E 034°59'0 0.0
2018-Jun-19 09:54N 32°51' E 034°60'0 0.0
2018-Jun-19 08:52N 32°51' E 034°60'0 0.0
2018-Jun-19 08:24N 32°51' E 034°59'0 0.0
2018-Jun-19 08:00N 32°51' E 034°60'0 0.0
2018-Jun-19 07:29N 32°51' E 034°59'0 0.0
2018-Jun-19 06:58N 32°51' E 034°59'0 0.0
2018-Jun-19 06:30N 32°51' E 034°59'0 0.0
2018-Jun-19 05:56N 32°51' E 034°59'0 0.0
2018-Jun-19 05:13N 32°51' E 034°60'0 0.1
2018-Jun-19 05:00N 32°51' E 034°59'0 0.0
2018-Jun-19 04:30N 32°51' E 034°59'0 0.0
2018-Jun-19 03:56N 32°51' E 034°59'0 0.0
2018-Jun-19 03:24N 32°51' E 034°59'0 0.0
2018-Jun-19 02:59N 32°51' E 034°59'0 0.0
2018-Jun-19 02:30N 32°51' E 034°59'0 0.0
2018-Jun-19 02:01N 32°51' E 034°59'0 0.0
2018-Jun-19 01:22N 32°51' E 034°59'0 0.0
2018-Jun-19 01:00N 32°51' E 034°59'0 0.0
2018-Jun-19 00:29N 32°51' E 034°59'0 0.0
2018-Jun-19 00:00N 32°51' E 034°59'0 0.0
2018-Jun-18 23:26N 32°51' E 034°59'0 0.0
2018-Jun-18 23:00N 32°51' E 034°59'0 0.0
2018-Jun-18 22:29N 32°51' E 034°59'0 0.0
2018-Jun-18 21:56N 32°51' E 034°59'0 0.0
2018-Jun-18 21:29N 32°51' E 034°59'0 0.0
2018-Jun-18 20:59N 32°51' E 034°59'0 0.0
2018-Jun-18 20:27N 32°51' E 034°59'0 0.0
2018-Jun-18 19:46N 32°51' E 034°59'0 0.0
2018-Jun-18 19:30N 32°51' E 034°59'0 0.0
2018-Jun-18 18:58N 32°51' E 034°59'0 0.0
2018-Jun-18 18:30N 32°51' E 034°59'0 0.0
2018-Jun-18 17:59N 32°51' E 034°59'0 0.0
2018-Jun-18 17:30N 32°51' E 034°59'0 0.0
2018-Jun-18 16:59N 32°51' E 034°59'0 0.0
2018-Jun-18 16:13N 32°51' E 034°59'0 0.0
2018-Jun-18 16:01N 32°51' E 034°59'0 0.0
2018-Jun-18 15:29N 32°51' E 034°59'0 0.0
2018-Jun-18 14:42N 32°51' E 034°59'0 0.0
2018-Jun-18 14:15N 32°51' E 034°59'0 0.0
2018-Jun-18 13:52N 32°51' E 034°59'0 0.0
2018-Jun-18 13:27N 32°51' E 034°59'0 0.0
2018-Jun-18 12:57N 32°51' E 034°59'0 0.0
2018-Jun-18 12:27N 32°51' E 034°59'0 0.0
2018-Jun-18 11:56N 32°51' E 034°59'0 0.0
2018-Jun-18 11:13N 32°51' E 034°59'0 0.0
2018-Jun-18 10:59N 32°51' E 034°60'0 0.0
2018-Jun-18 10:20N 32°51' E 034°60'0 0.0
2018-Jun-18 09:59N 32°51' E 034°60'0 0.0
2018-Jun-18 09:30N 32°51' E 034°60'0 0.0
2018-Jun-18 08:58N 32°51' E 034°60'0 0.0
2018-Jun-18 08:27N 32°51' E 034°60'0 0.0
2018-Jun-18 07:39N 32°51' E 034°59'0 0.1
2018-Jun-18 07:30N 32°51' E 034°59'0 0.0
2018-Jun-18 07:00N 32°51' E 034°59'0 0.0
2018-Jun-18 06:16N 32°51' E 034°59'0 0.0
2018-Jun-18 05:59N 32°51' E 034°59'0 0.0
2018-Jun-18 05:18N 32°51' E 034°59'0 0.0
2018-Jun-18 05:00N 32°51' E 034°59'0 0.0
2018-Jun-18 04:30N 32°51' E 034°59'0 0.0
2018-Jun-18 03:59N 32°51' E 034°59'0 0.0
2018-Jun-18 03:30N 32°51' E 034°59'0 0.0
2018-Jun-18 02:58N 32°51' E 034°59'0 0.0
2018-Jun-18 02:26N 32°51' E 034°59'0 0.0
2018-Jun-18 01:57N 32°51' E 034°59'0 0.0
2018-Jun-18 01:30N 32°51' E 034°59'0 0.0
2018-Jun-18 01:01N 32°51' E 034°59'0 0.0
2018-Jun-18 00:26N 32°51' E 034°59'0 0.0
2018-Jun-17 23:55N 32°51' E 034°59'0 0.0
2018-Jun-17 23:30N 32°51' E 034°59'0 0.0
2018-Jun-17 22:41N 32°51' E 034°59'0 0.0
2018-Jun-17 22:21N 32°51' E 034°59'0 0.0
2018-Jun-17 22:00N 32°51' E 034°59'0 0.0
2018-Jun-17 21:27N 32°51' E 034°59'0 0.0
2018-Jun-17 20:57N 32°51' E 034°59'0 0.0
2018-Jun-17 20:30N 32°51' E 034°60'0 0.0
2018-Jun-17 20:00N 32°51' E 034°59'0 0.0
2018-Jun-17 19:22N 32°51' E 034°59'0 0.0
2018-Jun-17 18:48N 32°51' E 034°59'0 0.0
2018-Jun-17 18:27N 32°51' E 034°59'0 0.0
2018-Jun-17 17:57N 32°51' E 034°60'0 0.0
2018-Jun-17 17:31N 32°51' E 034°59'0 0.0
2018-Jun-17 17:00N 32°51' E 034°59'0 0.0
2018-Jun-17 16:20N 32°51' E 034°59'0 0.0
2018-Jun-17 15:24N 32°51' E 034°59'0 0.0
2018-Jun-17 14:59N 32°51' E 034°59'0 0.0
2018-Jun-17 14:30N 32°51' E 034°59'0 0.0
2018-Jun-17 13:57N 32°51' E 034°59'0 0.0
2018-Jun-17 13:29N 32°51' E 034°59'0 0.0
2018-Jun-17 12:59N 32°51' E 034°59'0 0.0
2018-Jun-17 12:29N 32°51' E 034°59'0 0.0
2018-Jun-17 11:59N 32°51' E 034°59'0 0.0
2018-Jun-17 11:29N 32°51' E 034°59'0 0.0
2018-Jun-17 10:59N 32°51' E 034°59'0 0.0
2018-Jun-17 10:30N 32°51' E 034°59'0 0.0
2018-Jun-17 09:58N 32°51' E 034°59'0 0.0
2018-Jun-17 09:17N 32°51' E 034°59'0 0.0
2018-Jun-17 08:58N 32°51' E 034°59'0 0.0
2018-Jun-17 08:29N 32°51' E 034°59'0 0.0
2018-Jun-17 07:56N 32°51' E 034°59'0 0.0
2018-Jun-17 07:24N 32°51' E 034°59'0 0.0
2018-Jun-17 06:59N 32°51' E 034°59'0 0.0
2018-Jun-17 06:17N 32°51' E 034°59'0 0.0
2018-Jun-17 05:59N 32°51' E 034°59'0 0.0
2018-Jun-17 05:29N 32°51' E 034°59'0 0.0
2018-Jun-17 04:57N 32°51' E 034°59'0 0.0
2018-Jun-17 04:28N 32°51' E 034°59'0 0.0
2018-Jun-17 03:34N 32°51' E 034°59'0 0.1
2018-Jun-17 03:30N 32°51' E 034°59'0 0.0
2018-Jun-17 03:00N 32°51' E 034°60'0 0.0
2018-Jun-17 02:29N 32°51' E 034°60'0 0.0
2018-Jun-17 01:58N 32°51' E 034°60'0 0.0
2018-Jun-17 01:29N 32°51' E 034°60'0 0.0
2018-Jun-17 00:55N 32°51' E 034°60'0 0.0
2018-Jun-17 00:28N 32°51' E 034°60'0 0.0
2018-Jun-17 00:00N 32°51' E 034°60'0 0.0
2018-Jun-16 23:29N 32°51' E 034°60'0 0.0
2018-Jun-16 22:58N 32°51' E 034°60'0 0.0
2018-Jun-16 22:30N 32°51' E 034°60'0 0.0
2018-Jun-16 22:01N 32°51' E 034°59'0 0.0
2018-Jun-16 21:31N 32°51' E 034°59'0 0.1
2018-Jun-16 20:59N 32°51' E 034°59'0 0.1
2018-Jun-16 20:30N 32°51' E 034°59'0 0.1
2018-Jun-16 19:59N 32°51' E 034°59'0 0.0
2018-Jun-16 19:28N 32°51' E 034°59'0 0.0
2018-Jun-16 19:00N 32°51' E 034°59'0 0.1
2018-Jun-16 18:17N 32°51' E 034°59'0 0.0
2018-Jun-16 17:59N 32°51' E 034°59'0 0.0
2018-Jun-16 17:26N 32°51' E 034°59'0 0.1
2018-Jun-16 17:00N 32°51' E 034°59'0 0.0
2018-Jun-16 16:27N 32°51' E 034°59'0 0.1
2018-Jun-16 15:58N 32°51' E 034°59'0 0.0
2018-Jun-16 15:26N 32°51' E 034°59'0 0.0
2018-Jun-16 14:59N 32°51' E 034°59'0 0.0
2018-Jun-16 14:22N 32°51' E 034°59'0 0.0
2018-Jun-16 13:58N 32°51' E 034°59'0 0.0
2018-Jun-16 13:27N 32°51' E 034°59'1 0.9
2018-Jun-16 12:44N 32°51' E 034°59'1 6.8
2018-Jun-16 12:31N 32°52' E 034°57'4 7.5
2018-Jun-16 12:00N 32°53' E 034°53'4 7.5
2018-Jun-16 11:29N 32°54' E 034°49'4 7.5
2018-Jun-16 11:01N 32°56' E 034°45'4 7.6
2018-Jun-16 10:31N 32°57' E 034°40'4 7.6
2018-Jun-16 10:00N 32°58' E 034°36'37 7.3
2018-Jun-16 04:55N 33°32' E 034°17'14 7.3
2018-Jun-16 02:57N 33°45' E 034°11'3 7.2
2018-Jun-16 02:30N 33°48' E 034°10'3 7.2
2018-Jun-16 02:00N 33°52' E 034°08'4 7.0
2018-Jun-16 01:31N 33°55' E 034°07'4 7.4
2018-Jun-16 01:00N 33°58' E 034°05'5 7.1
2018-Jun-16 00:15N 34°03' E 034°03'2 7.1
2018-Jun-16 00:00N 34°05' E 034°02'4 7.1
2018-Jun-15 23:31N 34°08' E 034°01'4 7.3
2018-Jun-15 22:55N 34°12' E 033°59'4 7.3
2018-Jun-15 22:24N 34°16' E 033°57'9 7.5
2018-Jun-15 21:14N 34°24' E 033°54'2 7.6
2018-Jun-15 21:01N 34°26' E 033°53'4 7.5
2018-Jun-15 20:31N 34°29' E 033°52'4 7.6
2018-Jun-15 19:56N 34°34' E 033°50'3 7.7
2018-Jun-15 19:29N 34°37' E 033°49'4 7.8
2018-Jun-15 19:00N 34°40' E 033°47'4 7.9
2018-Jun-15 18:30N 34°44' E 033°45'4 8.0
2018-Jun-15 18:00N 34°48' E 033°44'9 6.4
2018-Jun-15 16:36N 34°56' E 033°39'0 0.5
2018-Jun-15 16:22N 34°56' E 033°39'0 0.0
2018-Jun-15 15:58N 34°56' E 033°39'0 0.0
2018-Jun-15 15:28N 34°56' E 033°39'0 0.0
2018-Jun-15 14:58N 34°56' E 033°39'0 0.0
2018-Jun-15 13:59N 34°56' E 033°39'0 0.0
2018-Jun-15 13:28N 34°56' E 033°39'0 0.0
2018-Jun-15 12:55N 34°56' E 033°39'0 0.0
2018-Jun-15 11:55N 34°56' E 033°39'0 0.0
2018-Jun-15 10:37N 34°56' E 033°39'0 0.1
2018-Jun-15 10:28N 34°56' E 033°39'0 0.0
2018-Jun-15 09:58N 34°56' E 033°39'96 6.8
2018-Jun-14 19:52N 33°26' E 034°19'3 8.9
2018-Jun-14 19:30N 33°22' E 034°20'11 8.9
2018-Jun-14 18:15N 33°12' E 034°25'2 8.8
2018-Jun-14 17:59N 33°10' E 034°26'5 8.7
2018-Jun-14 17:26N 33°05' E 034°28'5 8.5
2018-Jun-14 16:50N 33°01' E 034°31'2 7.5
2018-Jun-14 16:30N 32°59' E 034°33'4 8.3
2018-Jun-14 15:58N 32°57' E 034°38'5 8.2
2018-Jun-14 15:24N 32°56' E 034°43'3 8.1
2018-Jun-14 15:00N 32°55' E 034°47'4 8.1
2018-Jun-14 14:29N 32°54' E 034°51'4 8.0
2018-Jun-14 13:59N 32°53' E 034°56'3 7.2
2018-Jun-14 13:30N 32°51' E 034°60'1 0.0
2018-Jun-12 22:31N 32°51' E 034°60'0 0.0
2018-Jun-12 11:32N 32°51' E 034°60'0 0.0
2018-Jun-12 06:37N 32°51' E 034°60'0 0.0
2018-Jun-12 02:09N 32°51' E 034°60'0 0.0
2018-Jun-12 02:01N 32°51' E 034°60'0 0.0
2018-Jun-12 01:19N 32°51' E 034°60'0 0.0
2018-Jun-11 21:15N 32°51' E 034°60'0 0.0
2018-Jun-11 20:34N 32°51' E 034°60'0 0.0
2018-Jun-11 19:21N 32°51' E 034°60'0 0.1
2018-Jun-11 19:00N 32°51' E 034°60'0 0.0
2018-Jun-11 12:07N 32°51' E 034°60'0 0.1
2018-Jun-11 12:00N 32°51' E 034°60'0 0.0
2018-Jun-11 11:27N 32°51' E 034°60'0 0.0
2018-Jun-11 10:17N 32°51' E 034°60'0 0.0
2018-Jun-11 09:51N 32°51' E 034°60'0 0.0
2018-Jun-11 09:29N 32°51' E 034°60'0 0.0
2018-Jun-11 08:46N 32°51' E 034°60'0 0.0
2018-Jun-11 08:23N 32°51' E 034°60'0 0.0
2018-Jun-11 07:50N 32°51' E 034°60'0 0.0
2018-Jun-11 06:43N 32°51' E 034°60'0 0.0
2018-Jun-11 06:28N 32°51' E 034°60'0 0.0
2018-Jun-11 05:57N 32°51' E 034°60'0 0.0
2018-Jun-11 05:26N 32°51' E 034°60'0 0.0
2018-Jun-11 04:45N 32°51' E 034°60'0 0.0
2018-Jun-11 04:29N 32°51' E 034°60'0 0.0
2018-Jun-11 03:59N 32°51' E 034°60'0 0.0
2018-Jun-11 03:30N 32°51' E 034°60'0 0.0
2018-Jun-11 02:59N 32°51' E 034°60'0 0.0
2018-Jun-11 02:28N 32°51' E 034°60'0 0.0
2018-Jun-11 01:56N 32°51' E 034°60'0 0.0
2018-Jun-11 01:30N 32°51' E 034°60'0 0.0
2018-Jun-11 00:51N 32°51' E 034°60'0 0.0
2018-Jun-11 00:25N 32°51' E 034°60'0 0.0
2018-Jun-11 00:00N 32°51' E 034°60'0 0.0
2018-Jun-10 23:30N 32°51' E 034°60'0 0.0
2018-Jun-10 22:54N 32°51' E 034°60'0 0.0
2018-Jun-10 22:30N 32°51' E 034°60'0 0.0
2018-Jun-10 21:59N 32°51' E 034°60'0 0.0
2018-Jun-10 21:16N 32°51' E 034°60'0 0.1
2018-Jun-10 20:59N 32°51' E 034°60'0 0.0
2018-Jun-10 20:29N 32°51' E 034°60'0 0.0
2018-Jun-10 19:57N 32°51' E 034°60'0 0.0
2018-Jun-10 19:30N 32°51' E 034°60'0 0.0
2018-Jun-10 18:59N 32°51' E 034°60'0 0.0
2018-Jun-10 18:27N 32°51' E 034°60'0 0.0
2018-Jun-10 17:53N 32°51' E 034°60'0 0.0
2018-Jun-10 17:27N 32°51' E 034°60'0 0.0
2018-Jun-10 17:00N 32°51' E 034°60'0 0.0
2018-Jun-10 16:30N 32°51' E 034°60'0 0.0
2018-Jun-10 15:54N 32°51' E 034°60'0 0.0
2018-Jun-10 15:21N 32°51' E 034°60'0 0.0
2018-Jun-10 14:52N 32°51' E 034°60'  

Dump ship's entire track history